sensor_id;sensor_type;location;lat;lon;timestamp;temperature;humidity
18577;DHT22;9418;52.694;13.294;2022-07-09T00:01:18;14.20;99.90
18577;DHT22;9418;52.694;13.294;2022-07-09T00:03:44;14.20;99.90
18577;DHT22;9418;52.694;13.294;2022-07-09T00:06:11;14.10;99.90
18577;DHT22;9418;52.694;13.294;2022-07-09T00:08:37;14.10;99.90
18577;DHT22;9418;52.694;13.294;2022-07-09T00:11:04;14.10;99.90
18577;DHT22;9418;52.694;13.294;2022-07-09T00:13:31;14.00;99.90
18577;DHT22;9418;52.694;13.294;2022-07-09T00:15:59;14.00;99.90
18577;DHT22;9418;52.694;13.294;2022-07-09T00:18:25;14.00;99.90
18577;DHT22;9418;52.694;13.294;2022-07-09T00:20:54;14.00;99.90
18577;DHT22;9418;52.694;13.294;2022-07-09T00:23:21;13.90;99.90
18577;DHT22;9418;52.694;13.294;2022-07-09T00:25:47;13.90;99.90
18577;DHT22;9418;52.694;13.294;2022-07-09T00:28:14;13.90;99.90
18577;DHT22;9418;52.694;13.294;2022-07-09T00:30:40;13.80;99.90
18577;DHT22;9418;52.694;13.294;2022-07-09T00:33:08;13.80;99.90
18577;DHT22;9418;52.694;13.294;2022-07-09T00:35:35;13.70;99.90
18577;DHT22;9418;52.694;13.294;2022-07-09T00:38:01;13.70;99.90
18577;DHT22;9418;52.694;13.294;2022-07-09T00:40:28;13.70;99.90
18577;DHT22;9418;52.694;13.294;2022-07-09T00:42:55;13.70;99.90
18577;DHT22;9418;52.694;13.294;2022-07-09T00:45:21;13.60;99.90
18577;DHT22;9418;52.694;13.294;2022-07-09T00:47:48;13.60;99.90
18577;DHT22;9418;52.694;13.294;2022-07-09T00:50:16;13.60;99.90
18577;DHT22;9418;52.694;13.294;2022-07-09T00:52:43;13.60;99.90
18577;DHT22;9418;52.694;13.294;2022-07-09T00:55:11;13.60;99.90
18577;DHT22;9418;52.694;13.294;2022-07-09T00:57:38;13.50;99.90
18577;DHT22;9418;52.694;13.294;2022-07-09T01:00:07;13.50;99.90
18577;DHT22;9418;52.694;13.294;2022-07-09T01:02:34;13.50;99.90
18577;DHT22;9418;52.694;13.294;2022-07-09T01:05:00;13.50;99.90
18577;DHT22;9418;52.694;13.294;2022-07-09T01:07:28;13.40;94.50
18577;DHT22;9418;52.694;13.294;2022-07-09T01:09:55;13.40;92.20
18577;DHT22;9418;52.694;13.294;2022-07-09T01:12:21;13.40;93.80
18577;DHT22;9418;52.694;13.294;2022-07-09T01:14:48;13.30;94.20
18577;DHT22;9418;52.694;13.294;2022-07-09T01:17:14;13.30;90.50
18577;DHT22;9418;52.694;13.294;2022-07-09T01:19:42;13.20;93.90
18577;DHT22;9418;52.694;13.294;2022-07-09T01:22:09;13.20;88.20
18577;DHT22;9418;52.694;13.294;2022-07-09T01:24:36;13.20;90.20
18577;DHT22;9418;52.694;13.294;2022-07-09T01:27:03;13.20;89.00
18577;DHT22;9418;52.694;13.294;2022-07-09T01:29:30;13.20;88.30
18577;DHT22;9418;52.694;13.294;2022-07-09T01:31:56;13.10;83.70
18577;DHT22;9418;52.694;13.294;2022-07-09T01:34:23;13.10;79.30
18577;DHT22;9418;52.694;13.294;2022-07-09T01:36:50;13.00;80.90
18577;DHT22;9418;52.694;13.294;2022-07-09T01:39:17;13.00;74.40
18577;DHT22;9418;52.694;13.294;2022-07-09T01:41:44;13.00;78.40
18577;DHT22;9418;52.694;13.294;2022-07-09T01:44:10;13.00;76.00
18577;DHT22;9418;52.694;13.294;2022-07-09T01:46:37;12.90;70.70
18577;DHT22;9418;52.694;13.294;2022-07-09T01:49:04;12.90;71.00
18577;DHT22;9418;52.694;13.294;2022-07-09T01:51:33;12.90;67.20
18577;DHT22;9418;52.694;13.294;2022-07-09T01:54:00;12.90;66.10
18577;DHT22;9418;52.694;13.294;2022-07-09T01:56:27;12.90;66.50
18577;DHT22;9418;52.694;13.294;2022-07-09T01:58:54;12.90;66.80
18577;DHT22;9418;52.694;13.294;2022-07-09T02:01:21;12.80;65.10
18577;DHT22;9418;52.694;13.294;2022-07-09T02:03:47;12.80;64.90
18577;DHT22;9418;52.694;13.294;2022-07-09T02:06:14;12.80;57.70
18577;DHT22;9418;52.694;13.294;2022-07-09T02:08:41;12.80;54.40
18577;DHT22;9418;52.694;13.294;2022-07-09T02:11:07;12.80;53.10
18577;DHT22;9418;52.694;13.294;2022-07-09T02:13:36;12.80;58.50
18577;DHT22;9418;52.694;13.294;2022-07-09T02:16:03;12.70;56.80
18577;DHT22;9418;52.694;13.294;2022-07-09T02:18:30;12.70;53.50
18577;DHT22;9418;52.694;13.294;2022-07-09T02:20:57;12.70;60.50
18577;DHT22;9418;52.694;13.294;2022-07-09T02:23:23;12.70;51.50
18577;DHT22;9418;52.694;13.294;2022-07-09T02:25:50;12.70;50.90
18577;DHT22;9418;52.694;13.294;2022-07-09T02:28:16;12.70;47.40
18577;DHT22;9418;52.694;13.294;2022-07-09T02:30:44;12.70;50.80
18577;DHT22;9418;52.694;13.294;2022-07-09T02:33:11;12.70;51.00
18577;DHT22;9418;52.694;13.294;2022-07-09T02:35:38;12.80;54.90
18577;DHT22;9418;52.694;13.294;2022-07-09T02:38:04;12.80;58.00
18577;DHT22;9418;52.694;13.294;2022-07-09T02:40:31;12.80;57.50
18577;DHT22;9418;52.694;13.294;2022-07-09T02:42:57;12.80;60.70
18577;DHT22;9418;52.694;13.294;2022-07-09T02:45:24;12.80;61.90
18577;DHT22;9418;52.694;13.294;2022-07-09T02:47:52;12.80;62.20
18577;DHT22;9418;52.694;13.294;2022-07-09T02:50:19;12.90;66.80
18577;DHT22;9418;52.694;13.294;2022-07-09T02:52:45;12.90;67.40
18577;DHT22;9418;52.694;13.294;2022-07-09T02:55:12;12.90;70.20
18577;DHT22;9418;52.694;13.294;2022-07-09T02:57:38;12.90;68.20
18577;DHT22;9418;52.694;13.294;2022-07-09T03:00:06;12.90;68.70
18577;DHT22;9418;52.694;13.294;2022-07-09T03:02:33;13.00;71.30
18577;DHT22;9418;52.694;13.294;2022-07-09T03:05:01;12.90;72.50
18577;DHT22;9418;52.694;13.294;2022-07-09T03:07:28;12.90;77.80
18577;DHT22;9418;52.694;13.294;2022-07-09T03:09:55;12.90;69.80
18577;DHT22;9418;52.694;13.294;2022-07-09T03:12:21;12.90;71.00
18577;DHT22;9418;52.694;13.294;2022-07-09T03:14:48;12.90;71.20
18577;DHT22;9418;52.694;13.294;2022-07-09T03:17:15;12.90;70.40
18577;DHT22;9418;52.694;13.294;2022-07-09T03:19:41;13.00;67.80
18577;DHT22;9418;52.694;13.294;2022-07-09T03:22:09;13.00;69.40
18577;DHT22;9418;52.694;13.294;2022-07-09T03:24:37;13.00;68.60
18577;DHT22;9418;52.694;13.294;2022-07-09T03:27:04;13.00;62.70
18577;DHT22;9418;52.694;13.294;2022-07-09T03:29:30;13.10;67.10
18577;DHT22;9418;52.694;13.294;2022-07-09T03:31:57;13.10;67.10
18577;DHT22;9418;52.694;13.294;2022-07-09T03:34:23;13.10;66.00
18577;DHT22;9418;52.694;13.294;2022-07-09T03:36:50;13.10;71.70
18577;DHT22;9418;52.694;13.294;2022-07-09T03:39:18;13.10;76.40
18577;DHT22;9418;52.694;13.294;2022-07-09T03:41:44;13.20;77.50
18577;DHT22;9418;52.694;13.294;2022-07-09T03:44:11;13.10;76.90
18577;DHT22;9418;52.694;13.294;2022-07-09T03:46:38;13.20;72.30
18577;DHT22;9418;52.694;13.294;2022-07-09T03:49:04;13.20;70.10
18577;DHT22;9418;52.694;13.294;2022-07-09T03:51:31;13.20;78.60
18577;DHT22;9418;52.694;13.294;2022-07-09T03:53:57;13.20;79.40
18577;DHT22;9418;52.694;13.294;2022-07-09T03:56:25;13.30;79.30
18577;DHT22;9418;52.694;13.294;2022-07-09T03:58:52;13.30;79.90
18577;DHT22;9418;52.694;13.294;2022-07-09T04:01:18;13.30;89.00
18577;DHT22;9418;52.694;13.294;2022-07-09T04:03:45;13.30;82.00
18577;DHT22;9418;52.694;13.294;2022-07-09T04:06:12;13.40;88.00
18577;DHT22;9418;52.694;13.294;2022-07-09T04:08:38;13.40;91.10
18577;DHT22;9418;52.694;13.294;2022-07-09T04:11:05;13.40;88.40
18577;DHT22;9418;52.694;13.294;2022-07-09T04:13:33;13.40;79.80
18577;DHT22;9418;52.694;13.294;2022-07-09T04:16:00;13.50;87.00
18577;DHT22;9418;52.694;13.294;2022-07-09T04:18:26;13.40;90.00
18577;DHT22;9418;52.694;13.294;2022-07-09T04:20:53;13.40;90.10
18577;DHT22;9418;52.694;13.294;2022-07-09T04:23:20;13.50;89.10
18577;DHT22;9418;52.694;13.294;2022-07-09T04:25:46;13.50;94.50
18577;DHT22;9418;52.694;13.294;2022-07-09T04:28:14;13.50;91.20
18577;DHT22;9418;52.694;13.294;2022-07-09T04:30:42;13.50;94.00
18577;DHT22;9418;52.694;13.294;2022-07-09T04:33:08;13.50;99.90
18577;DHT22;9418;52.694;13.294;2022-07-09T04:35:35;13.60;99.90
18577;DHT22;9418;52.694;13.294;2022-07-09T04:38:02;13.60;94.20
18577;DHT22;9418;52.694;13.294;2022-07-09T04:40:28;13.70;94.70
18577;DHT22;9418;52.694;13.294;2022-07-09T04:42:55;13.70;97.00
18577;DHT22;9418;52.694;13.294;2022-07-09T04:45:22;13.70;99.90
18577;DHT22;9418;52.694;13.294;2022-07-09T04:47:50;13.80;98.30
18577;DHT22;9418;52.694;13.294;2022-07-09T04:50:16;13.80;99.30
18577;DHT22;9418;52.694;13.294;2022-07-09T04:52:43;13.80;99.10
18577;DHT22;9418;52.694;13.294;2022-07-09T04:55:10;13.90;99.90
18577;DHT22;9418;52.694;13.294;2022-07-09T04:57:37;13.90;99.90
18577;DHT22;9418;52.694;13.294;2022-07-09T05:00:05;13.90;99.90
18577;DHT22;9418;52.694;13.294;2022-07-09T05:02:31;13.90;99.90
18577;DHT22;9418;52.694;13.294;2022-07-09T05:04:59;14.00;99.90
18577;DHT22;9418;52.694;13.294;2022-07-09T05:07:26;14.00;99.90
18577;DHT22;9418;52.694;13.294;2022-07-09T05:09:52;14.10;99.90
18577;DHT22;9418;52.694;13.294;2022-07-09T05:12:19;14.10;99.90
18577;DHT22;9418;52.694;13.294;2022-07-09T05:14:46;14.10;99.90
18577;DHT22;9418;52.694;13.294;2022-07-09T05:17:13;14.20;99.90
18577;DHT22;9418;52.694;13.294;2022-07-09T05:19:40;14.20;99.90
18577;DHT22;9418;52.694;13.294;2022-07-09T05:22:08;14.30;99.90
18577;DHT22;9418;52.694;13.294;2022-07-09T05:24:35;14.40;99.90
18577;DHT22;9418;52.694;13.294;2022-07-09T05:27:01;14.40;99.90
18577;DHT22;9418;52.694;13.294;2022-07-09T05:29:28;14.50;99.90
18577;DHT22;9418;52.694;13.294;2022-07-09T05:31:55;14.50;99.90
18577;DHT22;9418;52.694;13.294;2022-07-09T05:34:23;14.50;99.90
18577;DHT22;9418;52.694;13.294;2022-07-09T05:36:50;14.50;99.90
18577;DHT22;9418;52.694;13.294;2022-07-09T05:39:18;14.60;99.90
18577;DHT22;9418;52.694;13.294;2022-07-09T05:41:45;14.60;99.90
18577;DHT22;9418;52.694;13.294;2022-07-09T05:44:11;14.60;99.90
18577;DHT22;9418;52.694;13.294;2022-07-09T05:46:40;14.60;99.90
18577;DHT22;9418;52.694;13.294;2022-07-09T05:49:07;14.60;99.90
18577;DHT22;9418;52.694;13.294;2022-07-09T05:51:33;14.60;99.90
18577;DHT22;9418;52.694;13.294;2022-07-09T05:54:00;14.60;99.90
18577;DHT22;9418;52.694;13.294;2022-07-09T05:56:28;14.60;99.90
18577;DHT22;9418;52.694;13.294;2022-07-09T05:58:54;14.70;99.90
18577;DHT22;9418;52.694;13.294;2022-07-09T06:01:21;14.70;99.10
18577;DHT22;9418;52.694;13.294;2022-07-09T06:03:47;14.80;95.90
18577;DHT22;9418;52.694;13.294;2022-07-09T06:06:14;14.80;99.90
18577;DHT22;9418;52.694;13.294;2022-07-09T06:08:41;14.80;99.90
18577;DHT22;9418;52.694;13.294;2022-07-09T06:11:07;14.80;99.90
18577;DHT22;9418;52.694;13.294;2022-07-09T06:13:35;14.80;99.90
18577;DHT22;9418;52.694;13.294;2022-07-09T06:16:02;14.90;99.90
18577;DHT22;9418;52.694;13.294;2022-07-09T06:18:28;14.90;99.90
18577;DHT22;9418;52.694;13.294;2022-07-09T06:20:55;15.00;99.90
18577;DHT22;9418;52.694;13.294;2022-07-09T06:23:22;15.00;99.90
18577;DHT22;9418;52.694;13.294;2022-07-09T06:25:49;15.00;99.90
18577;DHT22;9418;52.694;13.294;2022-07-09T06:28:16;15.00;99.90
18577;DHT22;9418;52.694;13.294;2022-07-09T06:30:44;15.10;99.90
18577;DHT22;9418;52.694;13.294;2022-07-09T06:33:10;15.20;99.90
18577;DHT22;9418;52.694;13.294;2022-07-09T06:35:37;15.20;99.90
18577;DHT22;9418;52.694;13.294;2022-07-09T06:38:04;15.30;99.90
18577;DHT22;9418;52.694;13.294;2022-07-09T06:40:30;15.30;99.90
18577;DHT22;9418;52.694;13.294;2022-07-09T06:42:58;15.40;99.90
18577;DHT22;9418;52.694;13.294;2022-07-09T06:45:24;15.40;99.90
18577;DHT22;9418;52.694;13.294;2022-07-09T06:47:52;15.50;99.90
18577;DHT22;9418;52.694;13.294;2022-07-09T06:50:19;15.60;99.90
18577;DHT22;9418;52.694;13.294;2022-07-09T06:52:46;15.60;99.90
18577;DHT22;9418;52.694;13.294;2022-07-09T06:55:12;15.70;99.90
18577;DHT22;9418;52.694;13.294;2022-07-09T06:57:39;15.70;99.90
18577;DHT22;9418;52.694;13.294;2022-07-09T07:00:07;15.70;99.90
18577;DHT22;9418;52.694;13.294;2022-07-09T07:02:34;15.80;99.90
18577;DHT22;9418;52.694;13.294;2022-07-09T07:05:02;15.80;99.90
18577;DHT22;9418;52.694;13.294;2022-07-09T07:07:30;15.80;99.90
18577;DHT22;9418;52.694;13.294;2022-07-09T07:09:56;15.80;99.90
18577;DHT22;9418;52.694;13.294;2022-07-09T07:12:23;15.80;99.90
18577;DHT22;9418;52.694;13.294;2022-07-09T07:14:50;15.80;99.90
18577;DHT22;9418;52.694;13.294;2022-07-09T07:17:17;15.90;99.90
18577;DHT22;9418;52.694;13.294;2022-07-09T07:19:43;15.90;99.90
18577;DHT22;9418;52.694;13.294;2022-07-09T07:22:11;15.90;99.90
18577;DHT22;9418;52.694;13.294;2022-07-09T07:24:38;15.90;99.90
18577;DHT22;9418;52.694;13.294;2022-07-09T07:27:05;15.90;99.90
18577;DHT22;9418;52.694;13.294;2022-07-09T07:29:31;16.00;99.90
18577;DHT22;9418;52.694;13.294;2022-07-09T07:31:58;16.00;99.90
18577;DHT22;9418;52.694;13.294;2022-07-09T07:34:25;16.00;99.90
18577;DHT22;9418;52.694;13.294;2022-07-09T07:36:52;16.00;99.90
18577;DHT22;9418;52.694;13.294;2022-07-09T07:39:19;16.00;99.90
18577;DHT22;9418;52.694;13.294;2022-07-09T07:41:47;16.10;99.90
18577;DHT22;9418;52.694;13.294;2022-07-09T07:44:14;16.10;99.90
18577;DHT22;9418;52.694;13.294;2022-07-09T07:46:40;16.00;99.90
18577;DHT22;9418;52.694;13.294;2022-07-09T07:49:07;16.00;99.90
18577;DHT22;9418;52.694;13.294;2022-07-09T07:51:33;16.00;99.90
18577;DHT22;9418;52.694;13.294;2022-07-09T07:54:00;16.10;99.90
18577;DHT22;9418;52.694;13.294;2022-07-09T07:56:30;16.10;99.90
18577;DHT22;9418;52.694;13.294;2022-07-09T07:58:57;16.10;99.90
18577;DHT22;9418;52.694;13.294;2022-07-09T08:01:24;16.20;99.90
18577;DHT22;9418;52.694;13.294;2022-07-09T08:03:51;16.20;99.90
18577;DHT22;9418;52.694;13.294;2022-07-09T08:06:17;16.20;99.90
18577;DHT22;9418;52.694;13.294;2022-07-09T08:08:44;16.30;99.90
18577;DHT22;9418;52.694;13.294;2022-07-09T08:11:11;16.30;99.90
18577;DHT22;9418;52.694;13.294;2022-07-09T08:13:38;16.30;1.40
18577;DHT22;9418;52.694;13.294;2022-07-09T08:16:06;16.40;99.90
18577;DHT22;9418;52.694;13.294;2022-07-09T08:18:33;16.40;99.90
18577;DHT22;9418;52.694;13.294;2022-07-09T08:20:59;16.50;99.90
18577;DHT22;9418;52.694;13.294;2022-07-09T08:23:26;16.50;99.90
18577;DHT22;9418;52.694;13.294;2022-07-09T08:25:53;16.70;99.90
18577;DHT22;9418;52.694;13.294;2022-07-09T08:28:19;16.70;99.90
18577;DHT22;9418;52.694;13.294;2022-07-09T08:30:47;16.70;99.90
18577;DHT22;9418;52.694;13.294;2022-07-09T08:33:14;16.80;99.90
18577;DHT22;9418;52.694;13.294;2022-07-09T08:35:41;16.80;99.90
18577;DHT22;9418;52.694;13.294;2022-07-09T08:38:07;16.90;99.90
18577;DHT22;9418;52.694;13.294;2022-07-09T08:40:34;16.80;99.90
18577;DHT22;9418;52.694;13.294;2022-07-09T08:43:03;16.80;99.90
18577;DHT22;9418;52.694;13.294;2022-07-09T08:45:30;16.80;99.90
18577;DHT22;9418;52.694;13.294;2022-07-09T08:48:00;16.70;99.90
18577;DHT22;9418;52.694;13.294;2022-07-09T08:50:27;16.70;99.90
18577;DHT22;9418;52.694;13.294;2022-07-09T08:52:54;16.60;99.90
18577;DHT22;9418;52.694;13.294;2022-07-09T08:55:22;16.60;99.90
18577;DHT22;9418;52.694;13.294;2022-07-09T08:57:50;16.60;99.90
18577;DHT22;9418;52.694;13.294;2022-07-09T09:00:16;16.60;99.90
18577;DHT22;9418;52.694;13.294;2022-07-09T09:02:43;16.60;99.90
18577;DHT22;9418;52.694;13.294;2022-07-09T09:05:13;16.50;99.90
18577;DHT22;9418;52.694;13.294;2022-07-09T09:07:40;16.50;99.90
18577;DHT22;9418;52.694;13.294;2022-07-09T09:10:07;16.40;99.90
18577;DHT22;9418;52.694;13.294;2022-07-09T09:12:34;16.30;88.80
18577;DHT22;9418;52.694;13.294;2022-07-09T09:15:04;16.10;53.90
18577;DHT22;9418;52.694;13.294;2022-07-09T09:17:31;15.90;37.30
18577;DHT22;9418;52.694;13.294;2022-07-09T09:19:58;15.70;99.90
18577;DHT22;9418;52.694;13.294;2022-07-09T09:22:26;15.60;99.90
18577;DHT22;9418;52.694;13.294;2022-07-09T09:24:52;15.50;99.90
18577;DHT22;9418;52.694;13.294;2022-07-09T09:27:27;15.50;99.90
18577;DHT22;9418;52.694;13.294;2022-07-09T09:29:57;15.40;99.90
18577;DHT22;9418;52.694;13.294;2022-07-09T09:32:25;15.30;99.90
18577;DHT22;9418;52.694;13.294;2022-07-09T09:34:52;15.40;99.90
18577;DHT22;9418;52.694;13.294;2022-07-09T09:37:27;15.40;99.90
18577;DHT22;9418;52.694;13.294;2022-07-09T09:39:53;15.40;99.90
18577;DHT22;9418;52.694;13.294;2022-07-09T09:42:23;15.50;99.90
18577;DHT22;9418;52.694;13.294;2022-07-09T09:44:50;15.60;99.90
18577;DHT22;9418;52.694;13.294;2022-07-09T09:47:20;15.70;99.90
18577;DHT22;9418;52.694;13.294;2022-07-09T09:49:48;15.90;99.90
18577;DHT22;9418;52.694;13.294;2022-07-09T09:52:15;16.00;99.90
18577;DHT22;9418;52.694;13.294;2022-07-09T09:54:44;16.00;99.90
18577;DHT22;9418;52.694;13.294;2022-07-09T09:57:13;16.00;99.90
18577;DHT22;9418;52.694;13.294;2022-07-09T09:59:41;16.10;99.90
18577;DHT22;9418;52.694;13.294;2022-07-09T10:02:10;16.10;99.90
18577;DHT22;9418;52.694;13.294;2022-07-09T10:04:38;16.20;99.90
18577;DHT22;9418;52.694;13.294;2022-07-09T10:07:07;16.20;99.90
18577;DHT22;9418;52.694;13.294;2022-07-09T10:09:34;16.20;99.90
18577;DHT22;9418;52.694;13.294;2022-07-09T10:12:03;16.20;99.90
18577;DHT22;9418;52.694;13.294;2022-07-09T10:14:31;16.30;99.90
18577;DHT22;9418;52.694;13.294;2022-07-09T10:17:09;16.40;99.90
18577;DHT22;9418;52.694;13.294;2022-07-09T10:19:36;16.50;1.40
18577;DHT22;9418;52.694;13.294;2022-07-09T10:22:04;16.60;99.90
18577;DHT22;9418;52.694;13.294;2022-07-09T10:24:33;16.60;99.90
18577;DHT22;9418;52.694;13.294;2022-07-09T10:27:05;16.70;99.90
18577;DHT22;9418;52.694;13.294;2022-07-09T10:29:33;16.80;99.90
18577;DHT22;9418;52.694;13.294;2022-07-09T10:32:00;16.90;99.90
18577;DHT22;9418;52.694;13.294;2022-07-09T10:34:40;17.20;99.90
18577;DHT22;9418;52.694;13.294;2022-07-09T10:37:09;17.40;99.90
18577;DHT22;9418;52.694;13.294;2022-07-09T10:39:35;17.60;99.90
18577;DHT22;9418;52.694;13.294;2022-07-09T10:42:05;17.80;99.90
18577;DHT22;9418;52.694;13.294;2022-07-09T10:44:36;17.90;99.90
18577;DHT22;9418;52.694;13.294;2022-07-09T10:47:04;18.20;50.80
18577;DHT22;9418;52.694;13.294;2022-07-09T10:49:33;18.10;87.00
18577;DHT22;9418;52.694;13.294;2022-07-09T10:52:00;18.00;99.90
18577;DHT22;9418;52.694;13.294;2022-07-09T10:54:26;18.10;99.90
18577;DHT22;9418;52.694;13.294;2022-07-09T10:56:53;18.20;94.90
18577;DHT22;9418;52.694;13.294;2022-07-09T10:59:22;18.30;99.90
18577;DHT22;9418;52.694;13.294;2022-07-09T11:01:49;18.40;99.90
18577;DHT22;9418;52.694;13.294;2022-07-09T11:04:27;18.30;99.90
18577;DHT22;9418;52.694;13.294;2022-07-09T11:06:55;18.40;99.90
18577;DHT22;9418;52.694;13.294;2022-07-09T11:09:22;18.40;99.90
18577;DHT22;9418;52.694;13.294;2022-07-09T11:11:51;18.40;99.90
18577;DHT22;9418;52.694;13.294;2022-07-09T11:14:17;18.60;99.90
18577;DHT22;9418;52.694;13.294;2022-07-09T11:16:54;18.80;99.90
18577;DHT22;9418;52.694;13.294;2022-07-09T11:19:22;18.80;99.90
18577;DHT22;9418;52.694;13.294;2022-07-09T11:21:49;18.70;99.90
18577;DHT22;9418;52.694;13.294;2022-07-09T11:24:17;18.60;99.90
18577;DHT22;9418;52.694;13.294;2022-07-09T11:26:44;18.60;99.90
18577;DHT22;9418;52.694;13.294;2022-07-09T11:29:12;18.60;99.90
18577;DHT22;9418;52.694;13.294;2022-07-09T11:31:46;18.50;99.90
18577;DHT22;9418;52.694;13.294;2022-07-09T11:34:15;18.60;99.90
18577;DHT22;9418;52.694;13.294;2022-07-09T11:36:43;18.60;99.90
18577;DHT22;9418;52.694;13.294;2022-07-09T11:39:10;18.60;99.90
18577;DHT22;9418;52.694;13.294;2022-07-09T11:41:47;18.60;99.90
18577;DHT22;9418;52.694;13.294;2022-07-09T11:44:19;18.60;99.90
18577;DHT22;9418;52.694;13.294;2022-07-09T11:47:01;18.60;99.90
18577;DHT22;9418;52.694;13.294;2022-07-09T11:49:37;18.50;99.90
18577;DHT22;9418;52.694;13.294;2022-07-09T11:52:04;18.50;95.20
18577;DHT22;9418;52.694;13.294;2022-07-09T11:54:31;18.50;99.90
18577;DHT22;9418;52.694;13.294;2022-07-09T11:56:58;18.40;99.90
18577;DHT22;9418;52.694;13.294;2022-07-09T11:59:26;18.40;99.90
18577;DHT22;9418;52.694;13.294;2022-07-09T12:01:52;18.40;99.90
18577;DHT22;9418;52.694;13.294;2022-07-09T12:04:21;18.30;99.90
18577;DHT22;9418;52.694;13.294;2022-07-09T12:06:49;18.30;99.90
18577;DHT22;9418;52.694;13.294;2022-07-09T12:09:27;18.30;99.90
18577;DHT22;9418;52.694;13.294;2022-07-09T12:11:54;18.10;99.90
18577;DHT22;9418;52.694;13.294;2022-07-09T12:14:20;17.70;99.90
18577;DHT22;9418;52.694;13.294;2022-07-09T12:16:47;17.50;86.10
18577;DHT22;9418;52.694;13.294;2022-07-09T12:19:14;17.30;37.20
18577;DHT22;9418;52.694;13.294;2022-07-09T12:21:40;17.20;30.00
18577;DHT22;9418;52.694;13.294;2022-07-09T12:24:08;17.10;99.90
18577;DHT22;9418;52.694;13.294;2022-07-09T12:26:35;17.10;99.90
18577;DHT22;9418;52.694;13.294;2022-07-09T12:29:02;17.10;99.90
18577;DHT22;9418;52.694;13.294;2022-07-09T12:31:29;17.10;99.90
18577;DHT22;9418;52.694;13.294;2022-07-09T12:37:17;17.20;99.90
18577;DHT22;9418;52.694;13.294;2022-07-09T12:39:45;17.10;99.90
18577;DHT22;9418;52.694;13.294;2022-07-09T12:42:12;17.20;99.90
18577;DHT22;9418;52.694;13.294;2022-07-09T12:44:39;17.20;99.90
18577;DHT22;9418;52.694;13.294;2022-07-09T12:47:05;17.30;99.90
18577;DHT22;9418;52.694;13.294;2022-07-09T12:49:32;17.30;99.90
18577;DHT22;9418;52.694;13.294;2022-07-09T12:51:58;17.20;99.90
18577;DHT22;9418;52.694;13.294;2022-07-09T12:54:25;17.20;99.90
18577;DHT22;9418;52.694;13.294;2022-07-09T12:56:53;17.30;99.90
18577;DHT22;9418;52.694;13.294;2022-07-09T12:59:20;17.20;99.90
18577;DHT22;9418;52.694;13.294;2022-07-09T13:01:47;17.30;99.90
18577;DHT22;9418;52.694;13.294;2022-07-09T13:04:14;17.10;99.90
18577;DHT22;9418;52.694;13.294;2022-07-09T13:06:40;17.10;99.90
18577;DHT22;9418;52.694;13.294;2022-07-09T13:09:08;17.20;99.90
18577;DHT22;9418;52.694;13.294;2022-07-09T13:11:35;17.20;99.90
18577;DHT22;9418;52.694;13.294;2022-07-09T13:14:04;17.20;99.90
18577;DHT22;9418;52.694;13.294;2022-07-09T13:16:31;17.20;99.90
18577;DHT22;9418;52.694;13.294;2022-07-09T13:18:57;17.20;99.90
18577;DHT22;9418;52.694;13.294;2022-07-09T13:21:24;17.10;99.90
18577;DHT22;9418;52.694;13.294;2022-07-09T13:23:51;17.10;99.90
18577;DHT22;9418;52.694;13.294;2022-07-09T13:26:19;17.00;99.90
18577;DHT22;9418;52.694;13.294;2022-07-09T13:28:46;17.00;99.90
18577;DHT22;9418;52.694;13.294;2022-07-09T13:31:14;17.10;99.90
18577;DHT22;9418;52.694;13.294;2022-07-09T13:33:40;17.40;99.90
18577;DHT22;9418;52.694;13.294;2022-07-09T13:36:07;17.50;99.90
18577;DHT22;9418;52.694;13.294;2022-07-09T13:38:34;17.70;99.90
18577;DHT22;9418;52.694;13.294;2022-07-09T13:41:02;17.70;99.90
18577;DHT22;9418;52.694;13.294;2022-07-09T13:43:29;17.80;99.90
18577;DHT22;9418;52.694;13.294;2022-07-09T13:45:57;17.90;99.90
18577;DHT22;9418;52.694;13.294;2022-07-09T13:48:26;17.90;99.90
18577;DHT22;9418;52.694;13.294;2022-07-09T13:50:53;18.00;99.90
18577;DHT22;9418;52.694;13.294;2022-07-09T13:53:20;18.10;34.60
18577;DHT22;9418;52.694;13.294;2022-07-09T13:55:47;18.00;48.90
18577;DHT22;9418;52.694;13.294;2022-07-09T13:58:13;18.00;54.00
18577;DHT22;9418;52.694;13.294;2022-07-09T14:00:40;18.00;54.80
18577;DHT22;9418;52.694;13.294;2022-07-09T14:03:07;18.00;49.70
18577;DHT22;9418;52.694;13.294;2022-07-09T14:05:36;18.00;59.30
18577;DHT22;9418;52.694;13.294;2022-07-09T14:08:04;18.00;57.40
18577;DHT22;9418;52.694;13.294;2022-07-09T14:10:30;18.00;53.00
18577;DHT22;9418;52.694;13.294;2022-07-09T14:12:57;17.90;65.00
18577;DHT22;9418;52.694;13.294;2022-07-09T14:15:24;17.90;68.50
18577;DHT22;9418;52.694;13.294;2022-07-09T14:17:51;17.90;71.80
18577;DHT22;9418;52.694;13.294;2022-07-09T14:20:17;18.00;62.80
18577;DHT22;9418;52.694;13.294;2022-07-09T14:22:46;18.00;59.60
18577;DHT22;9418;52.694;13.294;2022-07-09T14:25:12;18.10;51.70
18577;DHT22;9418;52.694;13.294;2022-07-09T14:27:39;18.10;58.80
18577;DHT22;9418;52.694;13.294;2022-07-09T14:30:07;18.10;82.80
18577;DHT22;9418;52.694;13.294;2022-07-09T14:32:34;18.10;79.70
18577;DHT22;9418;52.694;13.294;2022-07-09T14:35:01;18.20;92.60
18577;DHT22;9418;52.694;13.294;2022-07-09T14:37:28;18.20;99.90
18577;DHT22;9418;52.694;13.294;2022-07-09T14:39:56;18.40;99.90
18577;DHT22;9418;52.694;13.294;2022-07-09T14:42:23;18.60;99.90
18577;DHT22;9418;52.694;13.294;2022-07-09T14:44:50;18.60;99.90
18577;DHT22;9418;52.694;13.294;2022-07-09T14:47:16;18.70;99.90
18577;DHT22;9418;52.694;13.294;2022-07-09T14:49:43;19.00;99.90
18577;DHT22;9418;52.694;13.294;2022-07-09T14:52:13;19.20;99.90
18577;DHT22;9418;52.694;13.294;2022-07-09T14:54:40;19.40;99.90
18577;DHT22;9418;52.694;13.294;2022-07-09T14:57:08;19.50;99.90
18577;DHT22;9418;52.694;13.294;2022-07-09T14:59:35;19.70;99.90
18577;DHT22;9418;52.694;13.294;2022-07-09T15:02:01;19.80;99.90
18577;DHT22;9418;52.694;13.294;2022-07-09T15:04:28;20.00;99.90
18577;DHT22;9418;52.694;13.294;2022-07-09T15:06:55;20.10;23.90
18577;DHT22;9418;52.694;13.294;2022-07-09T15:09:21;20.30;36.70
18577;DHT22;9418;52.694;13.294;2022-07-09T15:11:48;20.40;21.70
18577;DHT22;9418;52.694;13.294;2022-07-09T15:14:16;20.50;34.70
18577;DHT22;9418;52.694;13.294;2022-07-09T15:16:42;20.50;46.90
18577;DHT22;9418;52.694;13.294;2022-07-09T15:19:09;20.50;60.90
18577;DHT22;9418;52.694;13.294;2022-07-09T15:21:36;20.50;59.70
18577;DHT22;9418;52.694;13.294;2022-07-09T15:24:03;20.50;60.80
18577;DHT22;9418;52.694;13.294;2022-07-09T15:26:30;20.60;60.70
18577;DHT22;9418;52.694;13.294;2022-07-09T15:28:57;20.70;65.20
18577;DHT22;9418;52.694;13.294;2022-07-09T15:31:25;20.50;72.90
18577;DHT22;9418;52.694;13.294;2022-07-09T15:33:51;20.30;66.00